Date,TemperatureHighF,TemperatureAvgF,TemperatureLowF,DewpointHighF,DewpointAvgF,DewpointLowF,HumidityHigh,HumidityAvg,HumidityLow,PressureMaxIn,PressureMinIn,WindSpeedMaxMPH,WindSpeedAvgMPH,GustSpeedMaxMPH,PrecipitationSumIn
2014-1-1,65.0,48.5,40.0,35.0,25.7,21.0,55,41,27,0.00,40.00,5,4,9,0.00
2014-1-2,65.0,49.0,40.0,34.0,28.5,25.0,54,46,28,0.00,40.00,5,4,9,0.00
2014-1-3,66.0,49.3,41.0,36.0,30.7,27.0,64,50,29,0.00,40.00,5,3,9,0.00
2014-1-4,56.0,43.4,35.0,31.0,19.5,-99.9,63,41,21,0.00,40.00,8,5,17,0.00
2014-1-5,64.0,44.8,33.0,12.0,8.5,5.0,38,24,11,0.00,40.00,7,5,14,0.00
2014-1-6,52.0,45.2,40.0,28.0,16.5,7.0,47,32,24,0.00,40.00,5,3,9,0.00
2014-1-7,55.0,42.7,34.0,34.0,26.2,21.0,69,53,32,0.00,40.00,4,2,12,0.00
2014-1-8,56.0,41.7,32.0,36.0,30.1,26.0,87,64,38,0.00,40.00,5,3,11,0.00
2014-1-9,50.0,40.1,36.0,40.0,34.4,31.0,91,80,68,0.00,40.00,3,2,11,0.00
2014-1-10,53.0,42.4,35.0,39.0,35.1,33.0,98,78,50,0.00,40.00,3,2,8,0.00
2014-1-11,45.0,39.1,32.0,43.0,35.0,-99.9,100,88,69,0.00,40.00,5,3,18,0.45
2014-1-12,42.0,35.0,31.0,40.0,34.3,31.0,100,97,87,0.00,40.00,5,2,7,0.01
2014-1-13,58.0,41.7,33.0,40.0,34.8,30.0,98,78,49,0.00,40.00,7,5,14,0.01
2014-1-14,55.0,41.1,32.0,32.0,27.6,25.0,81,61,33,0.00,40.00,8,6,13,0.00
2014-1-15,62.0,44.0,35.0,29.0,24.1,20.0,63,48,26,0.00,40.00,9,6,15,0.00
2014-1-16,64.0,46.1,35.0,28.0,22.3,17.0,59,41,22,0.00,40.00,8,6,14,0.00
2014-1-17,68.0,48.7,38.0,26.0,21.1,17.0,46,35,17,0.00,40.00,6,4,10,0.00
2014-1-18,68.0,49.4,40.0,28.0,22.2,-99.9,47,36,20,0.00,40.00,8,5,12,0.00
2014-1-19,66.0,47.3,39.0,30.0,24.9,22.0,55,42,24,0.00,40.00,6,4,8,0.00
2014-1-20,68.0,47.3,38.0,26.0,19.6,15.0,48,35,16,0.00,40.00,6,4,10,0.00
2014-1-21,68.0,47.8,38.0,25.0,18.1,14.0,47,32,15,0.00,40.00,6,4,9,0.00
2014-1-22,66.0,47.2,40.0,26.0,17.5,12.0,41,32,14,0.00,40.00,6,4,11,0.00
2014-1-23,65.0,51.3,41.0,23.0,19.5,16.0,42,29,17,0.00,40.00,8,6,16,0.00
2014-1-24,68.0,54.3,46.0,24.0,20.2,16.0,33,26,17,0.00,40.00,7,4,15,0.00
2014-1-25,66.0,50.0,41.0,26.0,18.6,-99.9,43,31,16,0.00,40.00,5,4,9,0.00
2014-1-26,70.0,50.7,42.0,27.0,21.2,16.0,47,33,16,0.00,40.00,6,4,11,0.00
2014-1-27,58.0,49.1,40.0,37.0,27.7,23.0,65,44,35,0.00,40.00,5,4,8,0.00
2014-1-28,61.0,52.2,46.0,42.0,37.3,34.0,67,58,41,0.00,40.00,4,3,12,0.00
2014-1-29,52.0,46.3,42.0,47.0,42.7,36.0,98,88,57,0.00,40.00,4,2,13,0.11
2014-1-30,53.0,41.8,34.0,41.0,34.9,27.0,99,79,49,0.00,40.00,4,2,8,0.03
2014-1-31,53.0,37.0,31.0,28.0,24.5,20.0,80,63,28,0.00,40.00,4,3,10,0.00
2014-2-1,56.0,36.0,28.0,25.0,18.8,-99.9,82,56,22,0.00,40.00,4,3,13,0.00
2014-2-2,51.0,37.6,31.0,27.0,22.6,19.0,76,56,30,0.00,40.00,4,2,13,0.00
2014-2-3,51.0,34.9,28.0,27.0,22.7,18.0,91,65,29,0.00,40.00,5,2,7,0.00
2014-2-4,52.0,35.6,26.0,20.0,17.8,14.0,75,52,23,0.00,40.00,3,2,9,0.00
2014-2-5,51.0,36.0,28.0,29.0,22.5,19.0,79,60,30,0.00,40.00,5,3,16,0.00
2014-2-6,36.0,33.3,32.0,35.0,32.3,27.0,100,96,76,0.00,40.00,4,2,10,0.21
2014-2-7,42.0,37.9,32.0,41.0,37.3,32.0,100,98,95,0.00,40.00,7,4,30,2.83
2014-2-8,47.0,43.6,41.0,46.0,42.6,40.0,98,98,97,0.00,40.00,7,4,21,2.47
2014-2-9,48.0,45.6,42.0,47.0,44.7,42.0,99,98,98,0.00,40.00,3,2,16,0.88
2014-2-10,62.0,46.7,37.0,48.0,42.8,37.0,100,88,55,0.00,40.00,4,2,10,0.11
2014-2-11,56.0,45.1,37.0,42.0,38.6,36.0,98,80,49,0.00,40.00,4,2,7,0.00
2014-2-12,47.0,44.8,40.0,46.0,42.9,38.0,98,94,86,0.00,40.00,6,3,20,1.33
2014-2-13,50.0,47.6,45.0,49.0,46.6,44.0,98,98,97,0.00,40.00,3,2,14,1.05
2014-2-14,52.0,50.3,49.0,51.0,49.3,48.0,98,98,97,0.00,40.00,7,5,25,1.05
2014-2-15,50.0,47.5,45.0,49.0,45.3,-99.9,98,96,88,0.00,40.00,8,6,34,1.70
2014-2-16,56.0,40.5,32.0,42.0,35.0,32.0,100,83,44,0.00,40.00,6,2,18,0.43
2014-2-17,56.0,40.6,32.0,39.0,34.6,32.0,100,82,45,0.00,40.00,4,2,14,0.00
2014-2-18,60.0,45.2,34.0,41.0,37.0,34.0,100,77,43,0.00,40.00,5,3,17,0.03
2014-2-19,55.0,41.4,32.0,41.0,32.9,27.0,100,76,39,0.00,40.00,4,3,10,0.07
2014-2-20,62.0,42.2,32.0,37.0,31.0,26.0,88,68,32,0.00,40.00,6,3,11,0.01
2014-2-21,60.0,45.3,35.0,37.0,34.4,32.0,89,68,40,0.00,40.00,6,4,11,0.00
2014-2-22,66.0,45.6,35.0,37.0,27.2,-99.9,84,55,16,0.00,40.00,5,3,11,0.00
2014-2-23,68.0,48.0,35.0,35.0,29.0,25.0,72,51,23,0.00,40.00,5,4,17,0.00
2014-2-24,72.0,50.8,39.0,40.0,33.5,28.0,85,58,21,0.00,40.00,5,3,12,0.00
2014-2-25,73.0,49.6,36.0,37.0,32.6,27.0,85,58,21,0.00,40.00,5,3,20,0.00
2014-2-26,47.0,45.0,41.0,46.0,42.2,36.0,98,91,69,0.00,40.00,5,2,16,2.46
2014-2-27,46.0,40.2,35.0,45.0,39.4,35.0,99,97,94,0.00,40.00,4,3,21,3.76
2014-2-28,46.0,42.6,40.0,45.0,41.5,39.0,98,96,94,0.00,40.00,5,3,14,0.69
2014-3-1,50.0,44.1,41.0,47.0,41.3,-99.9,98,93,83,0.00,40.00,4,2,12,0.65
2014-3-2,48.0,45.7,44.0,47.0,44.7,43.0,98,96,95,0.00,40.00,7,4,21,1.37
2014-3-3,48.0,44.8,43.0,47.0,43.6,42.0,96,95,94,0.00,40.00,9,5,35,2.07
2014-3-4,55.0,46.4,41.0,50.0,44.2,40.0,99,93,81,0.00,40.00,3,2,9,0.27
2014-3-5,51.0,47.6,44.0,49.0,46.6,44.0,99,96,93,0.00,40.00,10,4,34,2.62
2014-3-6,53.0,46.0,38.0,46.0,42.5,38.0,99,88,71,0.00,40.00,5,3,21,0.05
2014-3-7,67.0,45.8,35.0,45.0,38.2,34.0,100,79,33,0.00,40.00,5,3,10,0.04
2014-3-8,68.0,49.9,39.0,46.0,35.3,-99.9,98,64,26,0.00,40.00,5,4,14,0.02
2014-3-9,49.0,46.7,45.0,49.0,46.0,44.0,99,98,96,0.00,40.00,4,1,12,2.06
2014-3-10,60.0,46.6,39.0,47.0,40.0,29.0,99,81,38,0.00,40.00,6,2,11,1.26
2014-3-11,62.0,45.2,34.0,34.0,28.3,23.0,86,55,24,0.00,40.00,8,5,18,0.02
2014-3-12,72.0,48.3,35.0,32.0,27.3,24.0,64,48,19,0.00,40.00,6,4,10,0.00
2014-3-13,76.0,51.5,37.0,35.0,29.3,24.0,70,47,16,0.00,40.00,6,4,10,0.00
2014-3-14,70.0,51.2,44.0,41.0,31.9,17.0,63,51,13,0.00,40.00,4,2,6,0.00
2014-3-15,79.0,54.2,39.0,34.0,27.4,-99.9,69,44,12,0.00,40.00,5,4,11,0.00
2014-3-16,71.0,54.8,41.0,40.0,33.0,-99.9,73,48,25,0.00,40.00,7,4,21,0.00
2014-3-17,59.0,48.6,40.0,35.0,26.7,15.0,69,45,22,0.00,40.00,7,4,16,0.00
2014-3-18,67.0,44.8,35.0,31.0,25.4,20.0,64,49,20,0.00,40.00,7,5,14,0.00
2014-3-19,72.0,48.2,34.0,28.0,23.1,18.0,64,42,13,0.00,40.00,6,4,13,0.00
2014-3-20,72.0,50.2,37.0,37.0,28.3,21.0,74,47,20,0.00,40.00,5,4,10,0.00
2014-3-21,74.0,48.9,41.0,32.0,23.7,-99.9,60,42,14,0.00,40.00,6,4,13,0.00
2014-3-22,73.0,50.2,37.0,27.0,19.3,-99.9,54,35,8,0.00,40.00,7,4,12,0.00
2014-3-23,77.0,53.0,39.0,31.0,23.5,18.0,52,36,13,0.00,40.00,5,4,10,0.00
2014-3-24,75.0,63.3,49.0,33.0,27.6,23.0,53,29,14,0.00,40.00,5,3,21,0.00
2014-3-25,51.0,44.5,41.0,43.0,38.3,28.0,99,81,44,0.00,40.00,4,2,12,0.34
2014-3-26,45.0,41.2,38.0,44.0,40.1,37.0,99,97,90,0.00,40.00,4,2,19,1.32
2014-3-27,49.0,42.8,37.0,43.0,38.8,36.0,99,87,65,0.00,40.00,5,3,17,0.03
2014-3-28,49.0,45.2,43.0,48.0,44.2,42.0,98,98,96,0.00,40.00,6,5,21,2.89
2014-3-29,52.0,45.8,40.0,45.0,39.9,-99.9,99,84,65,0.00,40.00,6,3,41,1.70
2014-3-30,49.0,40.8,36.0,43.0,39.0,36.0,100,93,69,0.00,40.00,5,2,18,0.29
2014-3-31,40.0,36.2,32.0,40.0,35.7,32.0,100,98,92,0.00,40.00,6,2,20,0.85
2014-4-1,43.0,35.2,32.0,40.0,33.8,-99.9,100,97,87,0.00,40.00,3,2,9,0.89
2014-4-2,61.0,42.3,32.0,47.0,37.0,32.0,100,85,46,0.00,40.00,3,2,12,0.02
2014-4-3,50.0,42.6,39.0,47.0,40.7,38.0,99,93,78,0.00,40.00,4,2,15,0.33
2014-4-4,54.0,43.3,37.0,44.0,40.1,37.0,100,90,60,0.00,40.00,3,2,12,0.29
2014-4-5,63.0,45.1,36.0,46.0,37.7,-99.9,100,83,38,0.00,40.00,4,2,8,0.01
2014-4-6,78.0,53.3,42.0,47.0,42.0,40.0,94,71,30,0.00,40.00,4,2,7,0.00
2014-4-7,84.0,58.0,42.0,42.0,37.2,29.0,81,53,14,0.00,40.00,5,4,13,0.00
2014-4-8,78.0,60.1,44.0,43.0,37.8,29.0,77,49,18,0.00,40.00,5,4,14,0.00
2014-4-9,80.0,61.5,48.0,46.0,42.4,38.0,80,54,24,0.00,40.00,6,4,17,0.00
2014-4-10,83.0,62.5,46.0,48.0,43.7,39.0,85,55,27,0.00,40.00,5,4,14,0.00
2014-4-11,87.0,64.7,50.0,48.0,38.2,29.0,72,45,14,0.00,40.00,5,4,15,0.00
2014-4-12,83.0,62.4,49.0,50.0,39.6,-99.9,73,49,21,0.00,40.00,5,3,14,0.00
2014-4-13,80.0,57.1,44.0,32.0,25.0,14.0,47,31,14,0.00,40.00,6,4,12,0.00
2014-4-14,83.0,55.2,44.0,36.0,28.0,24.0,50,38,12,0.00,40.00,5,4,14,0.00
2014-4-15,79.0,58.1,45.0,41.0,31.6,20.0,68,42,13,0.00,40.00,5,4,10,0.00
2014-4-16,79.0,59.2,48.0,39.0,33.0,26.0,52,39,22,0.00,40.00,6,4,11,0.00
2014-4-17,77.0,58.4,49.0,43.0,39.3,33.0,80,53,23,0.00,40.00,6,4,18,0.00
2014-4-18,81.0,57.1,44.0,40.0,32.9,20.0,76,48,11,0.00,40.00,6,4,12,0.00
2014-4-19,76.0,55.9,41.0,41.0,32.0,-99.9,65,44,19,0.00,40.00,5,3,19,0.00
2014-4-20,82.0,58.6,41.0,39.0,29.8,22.0,69,41,11,0.00,40.00,5,3,9,0.00
2014-4-21,66.0,55.5,48.0,44.0,37.0,31.0,63,50,35,0.00,40.00,7,3,20,0.00
2014-4-22,59.0,46.8,36.0,43.0,32.2,22.0,100,64,27,0.00,40.00,10,2,29,0.13
2014-4-23,60.0,46.9,34.0,41.0,33.7,29.0,83,62,36,0.00,40.00,5,2,18,0.00
2014-4-24,57.0,49.3,42.0,49.0,42.4,38.0,89,77,65,0.00,40.00,4,2,17,0.01
2014-4-25,60.0,46.0,36.0,45.0,38.2,32.0,98,77,35,0.00,40.00,5,2,13,0.09
2014-4-26,60.0,41.5,32.0,37.0,32.9,30.0,99,77,36,0.00,40.00,4,2,16,0.09
2014-4-28,61.0,53.1,48.0,41.0,39.2,38.0,71,60,42,0.00,40.00,5,2,7,0.00
2014-4-29,86.0,60.0,45.0,41.0,35.8,33.0,72,47,15,0.00,40.00,5,4,10,0.00
2014-4-30,90.0,70.3,57.0,36.0,26.2,20.0,44,22,8,0.00,40.00,6,4,14,0.00
2014-5-1,88.0,68.8,56.0,38.0,29.1,21.0,45,24,13,0.00,40.00,5,4,14,0.00
2014-5-2,81.0,64.9,50.0,46.0,38.1,29.0,64,41,16,0.00,40.00,6,4,22,0.00
2014-5-3,74.0,60.6,50.0,45.0,39.3,-99.9,71,48,30,0.00,40.00,5,3,20,0.00
2014-5-4,63.0,54.6,43.0,51.0,40.5,35.0,80,59,43,0.00,40.00,6,3,19,0.00
2014-5-5,61.0,48.0,39.0,47.0,40.5,33.0,98,78,35,0.00,40.00,4,2,9,0.14
2014-5-6,71.0,48.9,39.0,40.0,36.4,32.0,99,68,24,0.00,40.00,7,5,14,0.10
2014-5-13,92.0,75.0,63.0,33.0,28.0,24.0,33,19,9,0.00,40.00,4,2,12,0.00
2014-5-14,96.0,71.5,56.0,41.0,31.7,23.0,42,27,9,0.00,40.00,5,4,12,0.00
2014-5-15,86.0,68.8,55.0,48.0,38.1,32.0,53,35,16,0.00,40.00,5,3,14,0.00
2014-5-16,86.0,68.1,54.0,46.0,35.8,30.0,56,35,14,0.00,40.00,6,4,18,0.00
2014-5-17,84.0,66.0,52.0,44.0,34.4,-99.9,59,34,17,0.00,40.00,6,4,24,0.00
2014-5-18,72.0,59.4,48.0,46.0,38.7,33.0,74,48,27,0.00,40.00,5,2,17,0.00
2014-5-19,73.0,52.7,43.0,45.0,34.3,-99.9,89,58,25,0.00,40.00,6,3,17,0.01
2014-5-20,83.0,62.4,44.0,48.0,42.2,34.0,91,54,24,0.00,40.00,8,4,14,0.01
2014-5-21,89.0,69.4,52.0,47.0,40.3,32.0,66,38,16,0.00,40.00,6,4,12,0.00
2014-5-22,92.0,71.6,55.0,50.0,38.8,28.0,66,36,12,0.00,40.00,5,3,13,0.00
2014-5-23,87.0,70.9,58.0,50.0,43.3,34.0,51,39,23,0.00,40.00,5,3,10,0.00
2014-5-24,93.0,72.4,57.0,50.0,40.2,-99.9,67,38,10,0.00,40.00,5,3,11,0.00
2014-5-25,94.0,75.3,59.0,49.0,39.9,31.0,58,31,13,0.00,40.00,5,3,16,0.00
2014-5-26,88.0,72.2,57.0,47.0,37.7,30.0,57,32,15,0.00,40.00,6,3,13,0.00
2014-5-27,84.0,67.9,54.0,48.0,33.9,14.0,63,34,9,0.00,40.00,6,4,23,0.00
2014-5-28,79.0,59.9,45.0,34.0,29.2,22.0,54,34,15,0.00,40.00,6,4,13,0.00
2014-5-29,86.0,63.0,46.0,37.0,29.7,19.0,61,34,10,0.00,40.00,6,4,13,0.00
2014-5-30,85.0,65.6,50.0,37.0,26.7,16.0,47,26,10,0.00,40.00,5,4,17,0.00
2014-5-31,87.0,67.4,48.0,41.0,32.2,-99.9,52,30,15,0.00,40.00,5,3,15,0.00
2014-6-1,93.0,67.6,53.0,44.0,36.9,33.0,53,36,13,0.00,40.00,5,3,11,0.00
2014-6-2,90.0,79.1,64.0,46.0,34.6,28.0,37,21,12,0.00,40.00,6,3,17,0.00
2014-6-3,85.0,69.7,52.0,44.0,37.7,34.0,61,34,17,0.00,40.00,5,3,18,0.00
2014-6-4,100.0,74.8,54.0,36.0,30.2,23.0,42,22,8,0.00,40.00,6,3,11,0.00
2014-6-5,103.0,79.3,61.0,41.0,34.9,28.0,41,22,10,0.00,40.00,6,4,13,0.00
2014-6-6,98.0,78.5,63.0,43.0,35.9,29.0,35,23,12,0.00,40.00,7,5,14,0.00
2014-6-7,98.0,77.9,65.0,41.0,34.7,-99.9,34,23,11,0.00,40.00,7,5,13,0.00
2014-6-8,99.0,78.3,63.0,49.0,42.8,39.0,50,31,13,0.00,40.00,6,4,13,0.00
2014-6-9,101.0,79.8,66.0,46.0,43.4,37.0,43,30,15,0.00,40.00,7,5,13,0.00
2014-6-10,97.0,79.5,63.0,37.0,30.3,27.0,29,18,9,0.00,40.00,8,6,16,0.00
2014-6-11,94.0,76.1,60.0,49.0,38.9,32.0,51,29,12,0.00,40.00,7,5,18,0.00
2014-6-12,82.0,69.2,55.0,52.0,42.1,24.0,82,42,15,0.00,40.00,6,3,20,0.00
2014-6-13,82.0,64.7,49.0,39.0,35.3,32.0,60,36,18,0.00,40.00,6,4,15,0.00
2014-6-14,78.0,63.8,50.0,44.0,34.8,-99.9,64,39,14,0.00,40.00,7,4,13,0.00
2014-6-15,88.0,69.2,55.0,45.0,38.6,32.0,53,34,18,0.00,40.00,6,4,12,0.00
2014-6-16,79.0,63.2,51.0,40.0,35.5,28.0,62,39,17,0.00,40.00,6,4,16,0.00
2014-6-17,82.0,61.5,45.0,36.0,31.7,24.0,63,37,13,0.00,40.00,7,5,17,0.00
2014-6-18,88.0,67.9,48.0,41.0,33.5,26.0,64,34,11,0.00,40.00,6,4,12,0.00
2014-6-19,91.0,72.6,55.0,43.0,35.6,28.0,47,28,15,0.00,40.00,5,4,18,0.00
2014-6-20,93.0,74.4,56.0,45.0,36.5,26.0,51,29,10,0.00,40.00,5,3,18,0.00
2014-6-21,93.0,73.3,57.0,46.0,36.8,-99.9,53,30,12,0.00,40.00,5,4,16,0.00
2014-6-22,96.0,75.8,58.0,43.0,34.4,28.0,44,25,10,0.00,40.00,5,3,14,0.00
2014-6-23,98.0,76.2,60.0,47.0,41.4,35.0,52,32,14,0.00,40.00,5,3,18,0.00
2014-6-24,96.0,76.3,62.0,46.0,42.0,38.0,47,32,15,0.00,40.00,6,4,12,0.00
2014-6-25,76.0,66.8,60.0,62.0,50.2,42.0,91,58,39,0.00,40.00,4,2,15,0.06
2014-6-26,74.0,64.4,52.0,56.0,49.4,47.0,88,60,42,0.00,40.00,4,2,14,0.01
2014-6-27,85.0,71.5,61.0,52.0,49.1,40.0,66,47,30,0.00,40.00,5,3,20,0.00
2014-6-28,90.0,69.9,54.0,50.0,41.5,-99.9,73,42,15,0.00,40.00,4,3,14,0.00
2014-6-29,98.0,77.0,59.0,50.0,37.5,27.0,59,30,9,0.00,40.00,6,4,12,0.00
2014-6-30,106.0,83.7,64.0,45.0,35.8,25.0,43,21,6,0.00,40.00,7,4,12,0.00
2014-7-1,104.0,82.8,68.0,48.0,39.7,32.0,37,23,9,0.00,40.00,5,4,17,0.00
2014-7-2,98.0,82.2,64.0,54.0,46.0,39.0,57,32,14,0.00,40.00,4,3,20,0.00
2014-7-3,101.0,81.9,65.0,55.0,47.1,40.0,56,34,14,0.00,40.00,4,3,17,0.00
2014-7-4,98.0,78.6,63.0,54.0,40.8,21.0,59,33,7,0.00,40.00,6,3,22,0.00
2014-7-5,98.0,78.8,60.0,44.0,24.4,-99.9,42,19,4,0.00,40.00,5,3,18,0.00
2014-7-6,106.0,79.9,59.0,36.0,24.8,15.0,25,15,6,0.00,40.00,5,3,13,0.00
2014-7-7,114.0,87.8,69.0,48.0,41.5,32.0,37,23,7,0.00,40.00,6,3,15,0.00
2014-7-8,89.0,78.9,71.0,56.0,49.5,43.0,46,37,22,0.00,40.00,6,2,18,0.00
2014-7-9,100.0,83.8,69.0,59.0,47.0,35.0,58,33,11,0.00,40.00,6,3,16,0.00
2014-7-10,98.0,82.9,62.0,53.0,41.1,29.0,58,27,9,0.00,40.00,5,3,17,0.00
2014-7-11,94.0,76.7,64.0,60.0,49.8,41.0,85,43,18,0.00,40.00,5,2,14,0.00
2014-7-12,104.0,82.6,60.0,52.0,43.4,33.0,70,33,9,0.00,40.00,5,2,14,0.00
2014-7-13,105.0,82.1,66.0,57.0,47.2,38.0,59,34,11,0.00,40.00,5,2,16,0.00
2014-7-14,110.0,88.6,70.0,58.0,47.3,33.0,55,29,9,0.00,40.00,6,3,12,0.00
2014-7-15,101.0,85.2,70.0,56.0,49.1,44.0,50,30,18,0.00,40.00,6,3,19,0.00
2014-7-16,100.0,81.4,67.0,56.0,50.8,47.0,51,37,18,0.00,40.00,5,2,19,0.00
2014-7-17,96.0,78.7,69.0,66.0,58.0,52.0,76,52,28,0.00,40.00,5,3,17,0.00
2014-7-18,97.0,78.7,64.0,61.0,57.4,53.0,86,53,25,0.00,40.00,5,2,17,0.00
2014-7-19,111.0,81.9,64.0,56.0,48.5,40.0,70,38,10,0.00,40.00,5,3,15,0.00
2014-7-20,96.0,77.3,66.0,56.0,52.8,48.0,66,46,24,0.00,40.00,5,3,22,0.00
2014-7-21,84.0,71.0,60.0,58.0,52.6,48.0,75,54,32,0.00,40.00,5,3,24,0.00
2014-7-22,87.0,73.4,61.0,61.0,52.1,44.0,83,52,25,0.00,40.00,6,2,24,0.00
2014-7-23,83.0,70.9,61.0,55.0,49.1,42.0,69,48,31,0.00,40.00,6,4,19,0.00
2014-7-24,94.0,71.5,56.0,46.0,38.6,27.0,63,36,11,0.00,40.00,8,5,14,0.00
2014-7-25,102.0,79.0,59.0,47.0,36.4,28.0,53,26,8,0.00,40.00,6,4,12,0.00
2014-7-26,105.0,81.8,63.0,45.0,32.1,22.0,38,19,7,0.00,40.00,5,3,15,0.00
2014-7-27,104.0,81.1,69.0,50.0,37.6,27.0,35,23,11,0.00,40.00,5,3,8,0.00
2014-7-28,108.0,85.7,66.0,49.0,40.3,32.0,41,23,8,0.00,40.00,5,4,16,0.00
2014-7-29,106.0,84.3,64.0,48.0,40.4,34.0,48,25,10,0.00,40.00,4,3,17,0.00
2014-7-30,110.0,85.9,65.0,46.0,40.0,35.0,38,22,9,0.00,40.00,5,3,15,0.00
2014-7-31,107.0,81.3,69.0,51.0,36.6,18.0,43,25,7,0.00,40.00,5,4,18,0.00
2014-8-1,108.0,85.8,69.0,49.0,34.2,24.0,37,19,6,0.00,40.00,5,3,16,0.00
2014-8-2,104.0,80.7,68.0,49.0,34.9,21.0,36,22,7,0.00,40.00,5,4,23,0.00
2014-8-3,101.0,80.5,65.0,43.0,34.6,28.0,35,21,9,0.00,40.00,5,4,17,0.00
2014-8-4,86.0,74.1,60.0,57.0,44.1,41.0,91,36,23,0.00,40.00,4,2,15,0.73
2014-8-5,76.0,64.0,59.0,67.0,60.7,57.0,99,90,66,0.00,40.00,4,2,12,0.91
2014-8-6,95.0,70.8,58.0,66.0,58.9,48.0,100,76,20,0.00,40.00,4,3,8,0.17
2014-8-7,100.0,87.2,69.0,55.0,50.1,46.0,56,31,17,0.00,40.00,4,3,14,0.00
2014-8-8,99.0,80.3,64.0,55.0,48.6,44.0,55,35,18,0.00,40.00,4,3,14,0.00
2014-8-9,97.0,79.2,64.0,49.0,41.9,30.0,49,30,12,0.00,40.00,5,3,16,0.00
2014-8-10,102.0,79.8,61.0,52.0,40.5,34.0,49,27,11,0.00,40.00,4,3,19,0.00
2014-8-11,101.0,79.0,65.0,50.0,43.8,36.0,51,32,14,0.00,40.00,5,3,17,0.00
2014-8-12,86.0,72.3,61.0,49.0,40.9,31.0,57,35,17,0.00,40.00,6,3,19,0.00
2014-8-13,85.0,66.7,59.0,57.0,45.2,38.0,79,49,21,0.00,40.00,5,2,20,0.01
2014-8-14,87.0,71.3,57.0,54.0,48.2,41.0,76,48,27,0.00,40.00,4,3,16,0.01
2014-8-15,93.0,73.6,58.0,54.0,42.1,35.0,67,38,15,0.00,40.00,5,3,17,0.00
2014-8-16,98.0,71.7,58.0,47.0,36.9,27.0,55,32,9,0.00,40.00,5,3,14,0.00
2014-8-17,98.0,76.7,59.0,44.0,30.4,22.0,44,23,8,0.00,40.00,5,3,15,0.00
2014-8-18,98.0,77.9,62.0,47.0,33.0,26.0,49,23,8,0.00,40.00,5,3,17,0.00
2014-8-19,96.0,76.6,61.0,48.0,40.1,31.0,48,29,17,0.00,40.00,6,2,16,0.00
2014-8-20,91.0,76.5,61.0,54.0,46.7,43.0,62,39,19,0.00,40.00,5,3,20,0.00
2014-8-21,92.0,74.1,59.0,54.0,48.0,43.0,77,45,19,0.00,40.00,5,3,18,0.00
2014-8-22,89.0,73.6,58.0,49.0,44.4,36.0,64,39,20,0.00,40.00,4,3,13,0.00
2014-8-23,94.0,68.7,56.0,48.0,36.6,28.0,59,35,10,0.00,40.00,5,3,9,0.00
2014-8-24,97.0,74.2,60.0,46.0,36.3,31.0,45,28,11,0.00,40.00,5,3,18,0.00
2014-8-25,91.0,74.1,60.0,47.0,42.2,38.0,51,34,17,0.00,40.00,5,3,16,0.00
2014-8-26,100.0,75.7,59.0,43.0,37.7,33.0,49,31,11,0.00,40.00,5,3,13,0.00
2014-8-27,97.0,76.5,61.0,50.0,45.9,39.0,64,37,16,0.00,40.00,5,3,16,0.00
2014-8-28,100.0,78.5,61.0,52.0,46.1,40.0,63,37,15,0.00,40.00,4,3,16,0.00
2014-8-29,96.0,78.3,63.0,50.0,43.6,36.0,54,33,13,0.00,40.00,6,3,21,0.00
2014-8-30,91.0,67.6,60.0,48.0,42.3,35.0,55,41,14,0.00,40.00,4,3,11,0.00
2014-8-31,86.0,69.7,58.0,48.0,41.5,32.0,63,40,16,0.00,40.00,6,4,45,0.00
2014-9-1,96.0,72.1,60.0,44.0,38.0,33.0,49,32,12,0.00,40.00,6,4,12,0.00
2014-9-2,96.0,78.0,63.0,40.0,37.5,34.0,38,25,13,0.00,40.00,6,4,24,0.00
2014-9-3,92.0,70.8,61.0,46.0,35.6,19.0,55,32,8,0.00,40.00,8,6,17,0.00
2014-9-4,97.0,70.5,60.0,27.0,22.5,12.0,25,18,5,0.00,40.00,8,5,14,0.00
2014-9-5,99.0,72.0,57.0,27.0,19.9,15.0,22,15,7,0.00,40.00,5,4,13,0.00
2014-9-6,94.0,70.5,57.0,34.0,27.6,24.0,38,22,9,0.00,40.00,6,3,21,0.00
2014-9-7,92.0,71.2,54.0,36.0,30.4,25.0,42,25,11,0.00,40.00,7,4,20,0.00
2014-9-8,93.0,71.2,55.0,37.0,32.1,27.0,42,27,10,0.00,40.00,5,3,15,0.00
2014-9-9,92.0,69.1,55.0,41.0,36.9,29.0,56,35,13,0.00,40.00,4,2,11,0.00
2014-9-10,97.0,71.4,58.0,40.0,29.5,23.0,38,24,8,0.00,40.00,5,3,10,0.00
2014-9-11,100.0,74.7,60.0,39.0,29.2,25.0,32,21,8,0.00,40.00,6,4,14,0.00
2014-9-12,99.0,76.0,60.0,39.0,32.5,26.0,36,23,8,0.00,40.00,5,4,16,0.00
2014-9-13,96.0,74.3,60.0,41.0,36.5,34.0,42,27,12,0.00,40.00,5,4,19,0.00
2014-9-14,99.0,76.6,62.0,41.0,35.8,30.0,39,26,9,0.00,40.00,5,4,17,0.00
2014-9-15,93.0,75.5,61.0,48.0,38.8,31.0,53,31,12,0.00,40.00,7,4,25,0.00
2014-9-16,90.0,70.7,57.0,42.0,31.1,19.0,47,26,10,0.00,40.00,5,2,16,0.00
2014-9-17,85.0,70.4,58.0,49.0,33.0,22.0,60,26,15,0.00,40.00,6,4,30,0.01
2014-9-18,78.0,61.7,57.0,61.0,54.8,49.0,98,81,40,0.00,40.00,5,3,22,0.34
2014-9-19,95.0,69.8,54.0,57.0,49.4,38.0,92,59,16,0.00,40.00,6,3,12,0.04
2014-9-20,99.0,72.9,61.0,55.0,47.1,38.0,60,43,14,0.00,40.00,5,4,15,0.00
2014-9-21,91.0,72.0,63.0,60.0,53.0,48.0,75,55,25,0.00,40.00,5,3,16,0.00
2014-9-22,87.0,68.6,56.0,55.0,49.9,45.0,86,57,26,0.00,40.00,5,2,16,0.00
2014-9-23,82.0,68.0,58.0,55.0,45.0,34.0,81,48,20,0.00,40.00,6,3,20,0.00
2014-9-24,67.0,63.1,53.0,56.0,51.5,39.0,98,67,40,0.00,40.00,5,3,17,0.71
2014-9-25,61.0,53.9,51.0,56.0,52.7,50.0,99,96,82,0.00,40.00,5,2,15,2.53
2014-9-26,75.0,53.8,46.0,54.0,48.7,45.0,100,86,39,0.00,40.00,6,3,13,0.12
2014-9-27,77.0,58.7,50.0,49.0,45.6,43.0,86,65,30,0.00,40.00,5,3,11,0.00
2014-9-28,69.0,58.9,51.0,54.0,49.4,47.0,95,72,48,0.00,40.00,3,2,8,0.00
2014-9-29,78.0,59.9,47.0,54.0,50.5,46.0,98,76,37,0.00,40.00,4,3,14,0.00
2014-9-30,75.0,59.9,50.0,54.0,44.6,35.0,97,63,25,0.00,40.00,7,4,15,0.00
2014-10-1,78.0,59.8,49.0,43.0,39.5,36.0,70,50,23,0.00,40.00,7,5,13,0.00
2014-10-2,76.0,56.8,48.0,41.0,36.8,34.0,63,49,25,0.00,40.00,5,4,9,0.00
2014-10-3,88.0,63.8,54.0,39.0,35.6,27.0,52,38,11,0.00,40.00,5,4,11,0.00
2014-10-4,95.0,68.1,56.0,45.0,37.5,30.0,53,34,12,0.00,40.00,7,4,11,0.00
2014-10-5,96.0,68.5,55.0,42.0,34.6,29.0,45,31,10,0.00,40.00,6,4,9,0.00
2014-10-6,97.0,67.6,61.0,41.0,33.2,26.0,37,29,10,0.00,40.00,6,4,10,0.00
2014-10-7,93.0,69.4,56.0,42.0,32.3,23.0,44,29,11,0.00,40.00,5,4,12,0.00
2014-10-8,90.0,66.3,55.0,41.0,32.4,28.0,47,30,13,0.00,40.00,5,3,13,0.00
2014-10-9,88.0,65.2,55.0,42.0,38.1,34.0,56,40,15,0.00,40.00,4,3,7,0.00
2014-10-10,88.0,66.1,54.0,42.0,38.2,36.0,50,37,17,0.00,40.00,5,3,7,0.00
2014-10-11,84.0,62.0,55.0,45.0,39.0,36.0,53,43,23,0.00,40.00,6,4,14,0.00
2014-10-12,82.0,62.3,51.0,42.0,35.3,25.0,64,41,13,0.00,40.00,7,5,12,0.00
2014-10-13,83.0,63.7,53.0,33.0,27.7,21.0,41,27,14,0.00,40.00,6,4,16,0.00
2014-10-14,62.0,57.7,51.0,51.0,40.2,33.0,97,55,37,0.00,40.00,8,3,32,0.45
2014-10-15,65.0,53.8,49.0,51.0,44.4,37.0,97,74,40,0.00,40.00,10,4,38,1.26
2014-10-16,69.0,54.4,46.0,48.0,44.3,38.0,93,72,35,0.00,40.00,5,3,18,0.03
2014-10-17,62.0,54.7,50.0,48.0,45.8,44.0,84,73,54,0.00,40.00,2,1,9,0.00
2014-10-18,79.0,56.9,52.0,53.0,47.2,44.0,85,71,34,0.00,40.00,3,2,6,0.00
2014-10-19,73.0,57.3,47.0,53.0,48.8,46.0,96,76,44,0.00,40.00,5,3,17,0.00
2014-10-20,61.0,53.7,44.0,55.0,49.8,43.0,98,88,68,0.00,40.00,6,3,20,0.60
2014-10-21,62.0,47.7,42.0,47.0,43.8,42.0,99,88,51,0.00,40.00,2,2,6,0.01
2014-10-22,60.0,50.4,42.0,47.0,45.0,41.0,98,83,61,0.00,40.00,3,2,9,0.15
2014-10-23,52.0,49.7,48.0,51.0,49.4,47.0,99,99,98,0.00,40.00,2,1,8,2.30
2014-10-24,67.0,53.2,48.0,55.0,50.0,47.0,100,90,59,0.00,40.00,4,2,16,0.41
2014-10-25,55.0,50.4,47.0,53.0,48.5,46.0,99,93,74,0.00,40.00,9,5,33,1.80
2014-10-26,55.0,43.9,38.0,47.0,41.9,38.0,100,93,66,0.00,40.00,3,2,7,0.13
2014-10-27,64.0,47.4,39.0,45.0,41.2,38.0,98,82,47,0.00,40.00,6,4,11,0.00
2014-10-28,67.0,51.3,40.0,48.0,42.6,37.0,93,75,41,0.00,40.00,5,3,10,0.00
2014-10-29,71.0,54.8,47.0,54.0,49.0,45.0,98,82,55,0.00,40.00,4,2,6,0.00
2014-10-30,70.0,55.5,46.0,53.0,49.4,45.0,98,82,51,0.00,40.00,4,3,11,0.00
2014-10-31,55.0,49.3,43.0,51.0,47.9,43.0,99,95,80,0.00,40.00,7,2,24,0.89
2014-11-1,57.0,44.9,39.0,50.0,40.9,36.0,100,87,57,0.00,40.00,2,1,6,0.01
2014-11-2,61.0,44.0,36.0,41.0,36.9,34.0,95,79,41,0.00,40.00,4,2,8,0.00
2014-11-3,67.0,47.8,39.0,43.0,39.0,35.0,90,75,36,0.00,40.00,4,3,8,0.00
2014-11-4,63.0,50.1,44.0,48.0,44.7,40.0,97,83,50,0.00,40.00,5,2,8,0.00
2014-11-5,74.0,54.9,45.0,56.0,47.8,43.0,94,79,49,0.00,40.00,5,3,10,0.00
2014-11-6,70.0,53.9,46.0,50.0,46.1,42.0,98,78,39,0.00,40.00,4,2,16,0.00
2014-11-7,72.0,54.4,45.0,50.0,47.0,43.0,95,79,45,0.00,40.00,5,4,9,0.00
2014-11-8,73.0,55.5,48.0,55.0,47.7,44.0,91,76,45,0.00,40.00,5,4,11,0.00
2014-11-9,68.0,56.0,48.0,54.0,46.8,42.0,84,72,49,0.00,40.00,6,3,10,0.00
2014-11-10,65.0,52.0,41.0,46.0,40.5,36.0,83,67,39,0.00,40.00,8,5,16,0.00
2014-11-11,64.0,47.3,39.0,45.0,37.5,31.0,92,70,43,0.00,40.00,7,4,12,0.00
2014-11-12,55.0,48.4,46.0,47.0,43.6,42.0,97,83,66,0.00,40.00,4,2,13,0.08
2014-11-13,49.0,46.9,45.0,48.0,46.1,44.0,99,98,97,0.00,40.00,4,3,17,0.73
2014-11-14,53.0,47.9,45.0,50.0,46.5,45.0,99,95,82,0.00,40.00,4,2,14,0.06
2014-11-15,63.0,45.4,39.0,47.0,40.1,31.0,99,83,52,0.00,40.00,5,2,12,0.01
2014-11-16,55.0,39.5,32.0,33.0,24.2,19.0,74,56,28,0.00,40.00,8,6,16,0.00
2014-11-17,60.0,40.9,31.0,33.0,25.9,22.0,72,57,31,0.00,40.00,7,5,12,0.00
2014-11-18,54.0,43.9,35.0,41.0,28.6,21.0,70,56,35,0.00,40.00,6,4,9,0.00
2014-11-19,47.0,41.7,39.0,42.0,36.4,29.0,99,83,60,0.00,40.00,5,2,16,0.78
2014-11-20,45.0,42.5,40.0,45.0,42.3,40.0,100,99,97,0.00,40.00,3,1,10,0.74
2014-11-21,46.0,43.3,41.0,45.0,42.9,41.0,99,98,96,0.00,40.00,5,2,15,0.73
2014-11-22,59.0,44.8,36.0,51.0,42.5,34.0,99,91,59,0.00,40.00,4,2,16,1.88
2014-11-23,49.0,38.3,33.0,39.0,35.0,30.0,99,89,67,0.00,40.00,5,3,8,0.02
2014-11-24,59.0,41.3,33.0,38.0,33.3,28.0,89,75,38,0.00,40.00,5,4,9,0.00
2014-11-25,63.0,44.6,37.0,44.0,39.2,35.0,97,83,43,0.00,40.00,5,3,8,0.00
2014-11-26,61.0,47.1,39.0,50.0,43.8,38.0,99,89,64,0.00,40.00,4,2,7,0.00
2014-11-27,57.0,46.4,41.0,47.0,41.7,37.0,95,84,65,0.00,40.00,3,2,5,0.00
2014-11-28,46.0,42.6,39.0,45.0,40.0,36.0,99,91,76,0.00,40.00,5,2,13,0.84
2014-11-29,47.0,45.1,44.0,47.0,44.9,44.0,99,98,98,0.00,40.00,6,3,16,1.27
2014-11-30,46.0,42.1,39.0,46.0,42.1,39.0,100,99,99,0.00,40.00,5,2,8,0.36
2014-12-1,49.0,44.9,41.0,49.0,44.8,41.0,100,99,95,0.00,40.00,3,1,5,0.15
2014-12-2,48.0,45.9,44.0,48.0,45.9,44.0,100,100,99,0.00,40.00,4,3,8,0.33
2014-12-3,48.0,45.6,44.0,48.0,45.6,44.0,100,100,100,0.00,40.00,3,2,7,1.63
2014-12-4,52.0,48.9,44.0,52.0,48.5,44.0,100,99,95,0.00,40.00,5,2,18,0.52
2014-12-5,52.0,50.3,48.0,52.0,50.0,48.0,100,99,97,0.00,40.00,10,4,32,3.72
2014-12-6,52.0,47.6,45.0,51.0,47.0,45.0,100,97,86,0.00,40.00,6,2,21,2.36
2014-12-7,55.0,48.2,43.0,52.0,46.9,43.0,100,96,86,0.00,40.00,5,3,18,0.33
2014-12-8,50.0,48.5,47.0,50.0,48.4,47.0,100,99,98,0.00,40.00,5,2,17,1.82
2014-12-9,52.0,49.0,47.0,52.0,49.0,47.0,100,99,100,0.00,40.00,3,1,11,0.25
2014-12-10,49.0,45.6,46.0,49.0,45.5,46.0,100,96,97,0.00,40.00,8,4,27,2.94
2014-12-11,48.0,45.2,38.0,48.0,45.0,38.0,100,99,97,0.00,40.00,11,5,47,6.25
2014-12-12,44.0,41.0,38.0,44.0,41.0,38.0,100,100,99,0.00,40.00,4,2,13,0.91
2014-12-13,41.0,39.0,38.0,41.0,39.0,38.0,100,100,100,0.00,40.00,2,1,3,0.38